Time;durP1;ratioP1;P1;durP2;ratioP2;P2;SDS_P1;SDS_P2;PMS_P1;PMS_P2;Temp;Humidity;BMP_temperature;BMP_pressure;BME280_temperature;BME280_humidity;BME280_pressure;Samples;Min_cycle;Max_cycle;Signal;HPM_P1;HPM_P2
2021/04/25 00:02:15;;;;;;;20.58;9.55;;;;;;;12.38;42.25;101643.19;5051915;28;20056;-69
2021/04/25 00:04:42;;;;;;;16.60;8.65;;;;;;;12.24;42.57;101641.50;5052487;28;20064;-69
2021/04/25 00:07:08;;;;;;;15.77;8.48;;;;;;;12.31;43.03;101640.00;5051761;28;20049;-69
2021/04/25 00:09:35;;;;;;;18.50;9.50;;;;;;;12.23;42.63;101634.34;5050654;28;20488;-69
2021/04/25 00:12:03;;;;;;;15.25;9.35;;;;;;;12.06;43.30;101628.56;5034913;28;20484;-70
2021/04/25 00:14:29;;;;;;;15.20;8.75;;;;;;;12.17;42.96;101630.03;5052636;28;20049;-68
2021/04/25 00:16:57;;;;;;;19.45;8.77;;;;;;;12.21;42.87;101636.59;5051079;28;20049;-68
2021/04/25 00:19:24;;;;;;;18.85;8.52;;;;;;;12.20;42.90;101640.50;5051862;28;20052;-68
2021/04/25 00:21:54;;;;;;;15.45;9.00;;;;;;;12.02;43.28;101644.09;5052744;28;20056;-67
2021/04/25 00:24:21;;;;;;;16.08;8.52;;;;;;;11.94;43.56;101645.59;5052737;28;20052;-67
2021/04/25 00:26:48;;;;;;;14.77;8.43;;;;;;;11.99;43.41;101641.94;5052151;28;20049;-70
2021/04/25 00:29:14;;;;;;;19.88;8.70;;;;;;;11.79;43.68;101645.00;5050627;28;20599;-68
2021/04/25 00:36:14;;;;;;;16.42;9.32;;;;;;;11.71;44.07;101640.16;5051279;28;20063;-69
2021/04/25 00:38:40;;;;;;;17.63;8.60;;;;;;;11.70;44.21;101646.81;5052167;28;20163;-69
2021/04/25 00:41:14;;;;;;;18.67;9.00;;;;;;;11.64;44.20;101643.31;5051115;28;20052;-70
2021/04/25 00:43:46;;;;;;;14.30;8.52;;;;;;;11.30;45.07;101640.69;5035513;28;20045;-69
2021/04/25 00:50:40;;;;;;;19.17;8.73;;;;;;;11.49;44.69;101629.66;5050858;28;20060;-67
2021/04/25 00:53:08;;;;;;;14.90;8.63;;;;;;;11.40;45.44;101637.00;5034183;28;20048;-69
2021/04/25 00:55:36;;;;;;;16.52;9.13;;;;;;;11.33;45.32;101640.09;5033814;28;20053;-69
2021/04/25 00:58:03;;;;;;;13.52;8.55;;;;;;;11.07;45.75;101646.25;5033161;28;20045;-68
2021/04/25 01:00:31;;;;;;;18.27;8.07;;;;;;;11.15;45.75;101629.88;5049569;28;20044;-69
2021/04/25 01:03:00;;;;;;;19.52;8.25;;;;;;;11.11;45.74;101639.84;5033173;28;20161;-68
2021/04/25 01:05:28;;;;;;;13.27;8.30;;;;;;;11.07;45.82;101638.78;5033652;28;20512;-67
2021/04/25 01:07:55;;;;;;;17.88;8.82;;;;;;;11.08;45.93;101625.81;5051267;28;20057;-68
2021/04/25 01:10:29;;;;;;;16.13;7.97;;;;;;;11.07;46.01;101625.00;5051828;28;20068;-68
2021/04/25 01:12:56;;;;;;;20.42;8.68;;;;;;;11.06;45.87;101628.88;5034055;28;20041;-69
2021/04/25 01:15:23;;;;;;;17.23;7.88;;;;;;;11.09;45.93;101635.72;5049804;28;20045;-68
2021/04/25 01:17:50;;;;;;;16.80;9.13;;;;;;;11.19;45.71;101633.66;5050837;28;20044;-68
2021/04/25 01:20:19;;;;;;;15.00;7.75;;;;;;;11.24;45.57;101630.84;5051559;28;20045;-68
2021/04/25 01:22:46;;;;;;;16.15;8.27;;;;;;;10.99;45.98;101630.34;5051058;28;20064;-68
2021/04/25 01:25:15;;;;;;;15.90;8.23;;;;;;;11.03;46.33;101631.41;5052349;28;20064;-68
2021/04/25 01:27:43;;;;;;;17.75;7.80;;;;;;;11.04;46.07;101633.03;5050020;28;20041;-68
2021/04/25 01:30:13;;;;;;;15.23;7.40;;;;;;;11.09;46.06;101628.28;5032958;28;20072;-67
2021/04/25 01:32:42;;;;;;;;;;;;;;;10.82;46.47;101618.97;5033875;28;20053;-69
2021/04/25 01:35:21;;;;;;;15.30;7.38;;;;;;;11.05;46.24;101629.97;5050571;28;19925;-68
2021/04/25 01:37:56;;;;;;;16.80;8.57;;;;;;;10.75;46.69;101626.75;5051707;28;20056;-68
2021/04/25 01:40:26;;;;;;;15.88;7.72;;;;;;;10.63;47.08;101632.69;5052629;28;20052;-67
2021/04/25 01:42:56;;;;;;;16.45;8.25;;;;;;;10.69;47.01;101631.50;5051401;28;20132;-69
2021/04/25 01:45:23;;;;;;;18.67;8.43;;;;;;;11.09;46.55;101633.78;5051770;28;20049;-67
2021/04/25 01:47:52;;;;;;;14.95;8.05;;;;;;;11.12;45.98;101637.91;5050320;28;20041;-66
2021/04/25 01:50:22;;;;;;;15.25;7.30;;;;;;;11.31;45.60;101642.31;5050152;28;20057;-66
2021/04/25 01:52:49;;;;;;;19.65;7.97;;;;;;;11.15;46.17;101640.91;5051017;28;20049;-68
2021/04/25 01:55:17;;;;;;;15.55;8.10;;;;;;;11.19;46.09;101635.63;5051238;28;20049;-69
2021/04/25 01:57:44;;;;;;;14.95;7.53;;;;;;;11.11;46.32;101645.34;5051091;28;20056;-68
2021/04/25 02:00:15;;;;;;;19.27;8.68;;;;;;;10.92;46.32;101636.22;5016857;28;20049;-68
2021/04/25 02:07:18;;;;;;;15.32;7.50;;;;;;;10.95;48.94;101621.84;4970796;28;20050;-69
2021/04/25 02:09:45;;;;;;;19.58;7.88;;;;;;;11.12;46.42;101618.59;4954304;28;20109;-68
2021/04/25 02:12:14;;;;;;;17.55;7.13;;;;;;;10.86;46.58;101637.38;4954531;28;20050;-68
2021/04/25 02:14:42;;;;;;;16.33;7.40;;;;;;;11.04;46.76;101631.09;4970059;28;20066;-68
2021/04/25 02:21:33;;;;;;;13.82;7.60;;;;;;;10.74;46.96;101623.19;4973689;28;20143;-70
2021/04/25 02:24:00;;;;;;;16.52;7.85;;;;;;;10.55;47.45;101647.06;4974046;28;20131;-68
2021/04/25 02:26:26;;;;;;;13.90;7.78;;;;;;;10.32;47.78;101655.31;4966068;28;20047;-69
2021/04/25 02:28:53;;;;;;;18.48;7.63;;;;;;;10.22;48.53;101647.13;5053850;28;20075;-68
2021/04/25 02:31:20;;;;;;;13.75;7.15;;;;;;;10.46;48.28;101653.53;5037638;28;20058;-68
2021/04/25 02:33:47;;;;;;;14.75;7.10;;;;;;;10.52;48.10;101660.59;5056077;28;20044;-68
2021/04/25 02:36:19;;;;;;;17.67;7.57;;;;;;;10.45;47.73;101669.22;5055556;28;20057;-70
2021/04/25 02:38:46;;;;;;;13.07;7.05;;;;;;;10.45;48.24;101671.97;5054423;28;20041;-70
2021/04/25 02:41:13;;;;;;;15.77;7.18;;;;;;;10.68;47.68;101673.97;5054302;28;20480;-68
2021/04/25 02:43:40;;;;;;;14.95;7.95;;;;;;;10.22;48.92;101672.72;5036516;28;20053;-68
2021/04/25 02:46:08;;;;;;;20.20;7.80;;;;;;;9.82;49.83;101672.97;5053902;28;20068;-68
2021/04/25 02:48:35;;;;;;;16.70;9.43;;;;;;;9.85;50.20;101684.25;5035541;28;20144;-66
2021/04/25 02:51:02;;;;;;;15.98;8.07;;;;;;;10.04;49.67;101681.66;5053508;28;20056;-67
2021/04/25 02:53:29;;;;;;;15.73;7.93;;;;;;;9.95;49.85;101677.84;5052869;28;20518;-66
2021/04/25 02:55:57;;;;;;;14.98;7.78;;;;;;;10.13;49.64;101682.69;5052940;28;20064;-67
2021/04/25 02:58:24;;;;;;;16.48;8.05;;;;;;;10.33;49.07;101682.53;5035046;28;20423;-68
2021/04/25 03:00:51;;;;;;;15.48;8.25;;;;;;;9.92;49.88;101687.50;5053154;28;20391;-67
2021/04/25 03:03:18;;;;;;;15.95;8.75;;;;;;;9.90;50.42;101688.91;5052583;28;20487;-68
2021/04/25 03:05:45;;;;;;;23.85;9.25;;;;;;;9.84;50.31;101682.59;5035681;28;20046;-67
2021/04/25 03:08:12;;;;;;;18.98;8.55;;;;;;;9.78;50.53;101677.44;5053777;28;20052;-66
2021/04/25 03:10:39;;;;;;;14.55;8.25;;;;;;;9.61;50.56;101677.78;5053761;28;20389;-68
2021/04/25 03:13:05;;;;;;;19.20;8.30;;;;;;;9.65;51.57;101672.53;5053121;28;20057;-69
2021/04/25 03:15:32;;;;;;;16.50;8.45;;;;;;;9.53;51.57;101667.38;5053138;28;20057;-69
2021/04/25 03:22:26;;;;;;;19.65;9.77;;;;;;;9.65;51.29;101665.13;5053637;28;20049;-68
2021/04/25 03:24:53;;;;;;;18.00;8.70;;;;;;;9.64;51.13;101666.22;5053532;28;20045;-68
2021/04/25 03:27:20;;;;;;;16.33;8.38;;;;;;;9.82;50.52;101662.81;5051543;28;20049;-68
2021/04/25 03:29:47;;;;;;;15.73;9.07;;;;;;;9.58;51.10;101661.03;5053531;28;20044;-68
2021/04/25 03:32:14;;;;;;;16.75;8.85;;;;;;;9.88;50.54;101660.84;5052831;28;20060;-69
2021/04/25 03:34:41;;;;;;;18.70;9.32;;;;;;;9.68;50.90;101666.47;5053381;28;20059;-70
2021/04/25 03:37:07;;;;;;;20.40;9.25;;;;;;;9.82;50.98;101660.06;5053127;28;20484;-69
2021/04/25 03:39:35;;;;;;;20.70;9.27;;;;;;;9.81;50.50;101660.34;5052625;28;20057;-68
2021/04/25 03:42:02;;;;;;;15.65;9.23;;;;;;;9.75;50.70;101662.28;5053105;28;20384;-70
2021/04/25 03:44:29;;;;;;;19.20;9.20;;;;;;;9.68;51.01;101660.97;5035425;28;20400;-69
2021/04/25 03:46:57;;;;;;;19.48;10.52;;;;;;;9.39;51.88;101663.63;5052955;28;20056;-67
2021/04/25 03:49:24;;;;;;;16.95;9.25;;;;;;;9.37;51.98;101665.81;5051391;28;20053;-69
2021/04/25 03:51:52;;;;;;;19.60;9.57;;;;;;;9.18;52.45;101664.81;5052769;28;20060;-67
2021/04/25 03:54:19;;;;;;;14.48;8.68;;;;;;;9.25;52.52;101659.00;5052969;28;20057;-67
2021/04/25 03:56:49;;;;;;;18.30;9.75;;;;;;;9.26;52.62;101663.41;5034357;28;20053;-68
2021/04/25 03:59:16;;;;;;;18.63;9.48;;;;;;;9.20;52.91;101651.59;5052837;28;20045;-69
2021/04/25 04:01:43;;;;;;;18.67;9.70;;;;;;;9.12;52.98;101665.13;5034685;28;20060;-68
2021/04/25 04:04:10;;;;;;;18.52;10.40;;;;;;;9.01;53.54;101661.56;5052363;28;20041;-69
2021/04/25 04:06:37;;;;;;;16.88;9.65;;;;;;;9.13;53.19;101666.75;5052517;28;20460;-66
2021/04/25 04:09:04;;;;;;;18.55;9.90;;;;;;;9.16;52.65;101658.75;5051979;28;20559;-69
2021/04/25 04:11:31;;;;;;;21.60;9.63;;;;;;;9.18;53.00;101662.06;5052168;28;20536;-69
2021/04/25 04:13:58;;;;;;;18.55;9.38;;;;;;;9.35;54.59;101665.28;5033591;28;20057;-69
2021/04/25 04:16:26;;;;;;;19.52;10.30;;;;;;;9.04;53.03;101672.84;5052014;28;20048;-68
2021/04/25 04:23:16;;;;;;;21.70;9.80;;;;;;;8.77;53.99;101660.56;5052326;28;20044;-68
2021/04/25 04:25:45;;;;;;;21.00;9.55;;;;;;;8.69;54.53;101670.19;5052118;28;20048;-67
2021/04/25 04:28:12;;;;;;;17.17;9.95;;;;;;;8.82;53.84;101672.31;5034307;28;20045;-68
2021/04/25 04:30:38;;;;;;;19.55;9.65;;;;;;;8.84;53.80;101661.06;5050377;28;20052;-68
2021/04/25 04:33:05;;;;;;;19.73;9.50;;;;;;;8.86;53.64;101659.69;5051226;28;20053;-69
2021/04/25 04:35:33;;;;;;;20.40;9.30;;;;;;;8.97;53.68;101653.06;5052309;28;20052;-71
2021/04/25 04:38:00;;;;;;;16.73;9.52;;;;;;;9.03;53.65;101649.19;5032169;28;20175;-71
2021/04/25 04:40:26;;;;;;;20.60;9.60;;;;;;;8.95;53.58;101658.00;5034746;28;20055;-68
2021/04/25 04:42:53;;;;;;;18.70;9.05;;;;;;;9.02;53.54;101661.28;5051804;28;20045;-69
2021/04/25 04:45:21;;;;;;;16.40;8.98;;;;;;;8.67;54.14;101663.28;5052605;28;20483;-68
2021/04/25 04:47:48;;;;;;;24.15;10.02;;;;;;;8.71;54.14;101656.16;5050977;28;20052;-68
2021/04/25 04:50:17;;;;;;;17.13;9.32;;;;;;;8.92;53.49;101660.50;5033442;28;20475;-68
2021/04/25 04:52:45;;;;;;;20.65;9.10;;;;;;;8.79;53.84;101670.16;5051751;28;20037;-68
2021/04/25 04:55:14;;;;;;;20.58;9.10;;;;;;;8.87;53.51;101668.75;5050962;28;20057;-69
2021/04/25 04:57:41;;;;;;;19.40;8.90;;;;;;;8.73;54.08;101664.94;5051661;28;20045;-69
2021/04/25 05:00:09;;;;;;;18.42;9.15;;;;;;;8.66;54.08;101669.91;5051545;28;20055;-71
2021/04/25 05:02:36;;;;;;;23.60;8.77;;;;;;;8.68;54.37;101665.75;5016773;28;20049;-69
2021/04/25 05:05:04;;;;;;;16.15;7.85;;;;;;;8.73;53.87;101678.69;5052054;28;20049;-69
2021/04/25 05:07:31;;;;;;;16.70;8.85;;;;;;;8.92;53.45;101686.06;5050774;28;20045;-68
2021/04/25 05:09:58;;;;;;;18.08;9.35;;;;;;;8.82;53.72;101691.56;5033676;28;20070;-66
2021/04/25 05:12:25;;;;;;;19.80;8.52;;;;;;;8.85;53.43;101687.44;5052445;28;20045;-68
2021/04/25 05:14:52;;;;;;;21.25;8.43;;;;;;;8.67;54.16;101697.09;5033933;28;20053;-69
2021/04/25 05:17:19;;;;;;;18.75;7.70;;;;;;;8.64;54.47;101689.41;5051280;28;20052;-68
2021/04/25 05:19:46;;;;;;;17.30;8.25;;;;;;;9.07;53.34;101697.00;5052749;28;20056;-70
2021/04/25 05:22:14;;;;;;;16.55;8.32;;;;;;;8.76;53.85;101700.94;5051253;28;20060;-68
2021/04/25 05:24:41;;;;;;;20.83;7.97;;;;;;;8.63;54.08;101703.44;5033004;28;20049;-68
2021/04/25 05:27:08;;;;;;;18.77;7.75;;;;;;;8.48;54.60;101712.50;5050615;28;20049;-67
2021/04/25 05:29:35;;;;;;;16.38;7.72;;;;;;;8.50;54.70;101710.28;5050941;28;20059;-69
2021/04/25 05:32:03;;;;;;;16.38;7.50;;;;;;;8.41;54.70;101708.34;5050462;28;20049;-69
2021/04/25 05:38:56;;;;;;;17.75;6.97;;;;;;;8.82;53.54;101709.97;5051569;28;20045;-67
2021/04/25 05:41:23;;;;;;;20.27;7.38;;;;;;;8.92;52.76;101718.19;5051537;28;20358;-69
2021/04/25 05:43:50;;;;;;;16.05;7.03;;;;;;;8.58;53.58;101723.47;5051654;28;20060;-70
2021/04/25 05:46:17;;;;;;;19.23;7.55;;;;;;;8.20;54.89;101731.38;5051025;28;20045;-68
2021/04/25 05:48:46;;;;;;;14.93;6.95;;;;;;;8.27;54.30;101729.22;5050706;28;20055;-69
2021/04/25 05:51:13;;;;;;;15.27;6.82;;;;;;;8.30;54.77;101729.50;5053592;28;20056;-69
2021/04/25 05:53:40;;;;;;;21.08;7.32;;;;;;;8.18;54.65;101726.16;5036595;28;20045;-67
2021/04/25 05:56:07;;;;;;;17.92;6.53;;;;;;;8.37;54.37;101732.78;5055085;28;20049;-69
2021/04/25 05:58:34;;;;;;;18.20;7.13;;;;;;;8.26;54.01;101736.66;5054583;28;20056;-69
2021/04/25 06:01:01;;;;;;;16.90;6.32;;;;;;;8.22;54.33;101738.25;5037477;28;20544;-67
2021/04/25 06:03:28;;;;;;;14.88;7.00;;;;;;;8.14;54.44;101733.31;5037177;28;20480;-67
2021/04/25 06:05:55;;;;;;;16.45;7.05;;;;;;;8.39;53.79;101738.84;5054767;28;20052;-67
2021/04/25 06:08:22;;;;;;;13.30;6.65;;;;;;;8.21;53.88;101735.78;5054757;28;20048;-68
2021/04/25 06:10:49;;;;;;;15.50;6.93;;;;;;;8.24;54.20;101748.97;5055158;28;20037;-69
2021/04/25 06:13:16;;;;;;;12.93;6.38;;;;;;;8.33;54.38;101739.94;5054409;28;20049;-69
2021/04/25 06:15:43;;;;;;;17.20;6.57;;;;;;;8.57;53.56;101741.03;5054891;28;20049;-68
2021/04/25 06:18:10;;;;;;;17.48;6.88;;;;;;;8.62;53.27;101740.22;5054582;28;20041;-66
2021/04/25 06:20:37;;;;;;;17.88;6.50;;;;;;;8.90;51.89;101745.13;5053480;28;20056;-68
2021/04/25 06:23:04;;;;;;;19.23;7.03;;;;;;;8.56;52.91;101755.84;5037607;28;20072;-69
2021/04/25 06:25:31;;;;;;;16.30;6.35;;;;;;;8.85;53.08;101740.47;5055574;28;20404;-68
2021/04/25 06:27:58;;;;;;;14.82;6.00;;;;;;;9.06;51.64;101736.59;5054321;28;20060;-67
2021/04/25 06:30:25;;;;;;;16.52;6.18;;;;;;;8.69;52.45;101751.75;5053760;28;20048;-67
2021/04/25 06:32:52;;;;;;;15.55;6.72;;;;;;;8.59;52.64;101744.34;5035597;28;20049;-70
2021/04/25 06:35:19;;;;;;;15.95;6.65;;;;;;;8.71;52.10;101747.63;5052428;28;20053;-69
2021/04/25 06:37:47;;;;;;;15.82;7.10;;;;;;;8.78;52.02;101747.34;5035806;28;20125;-69
2021/04/25 06:40:15;;;;;;;16.98;6.32;;;;;;;8.91;51.88;101736.59;5036035;28;20048;-68
2021/04/25 06:42:42;;;;;;;24.38;6.88;;;;;;;8.61;52.29;101742.13;5036060;28;20049;-70
2021/04/25 06:45:12;;;;;;;14.75;6.93;;;;;;;8.54;52.46;101738.81;5034491;28;20045;-70
2021/04/25 06:47:39;;;;;;;12.70;6.25;;;;;;;8.72;52.00;101742.94;5052418;28;20056;-68
2021/04/25 06:54:55;;;;;;;17.30;6.73;;;;;;;8.83;51.51;101739.91;5052028;28;20056;-68
2021/04/25 06:57:22;;;;;;;18.48;7.30;;;;;;;8.73;51.77;101728.97;5052434;28;20060;-70
2021/04/25 06:59:49;;;;;;;19.50;6.53;;;;;;;8.87;51.83;101720.97;5052102;28;20049;-68
2021/04/25 07:02:18;;;;;;;16.02;6.65;;;;;;;8.97;51.13;101716.28;5034368;28;20048;-68
2021/04/25 07:04:48;;;;;;;26.38;10.65;;;;;;;8.89;51.64;101722.31;5051429;28;20401;-70
2021/04/25 07:07:15;;;;;;;17.77;6.70;;;;;;;9.08;51.26;101711.56;5034457;28;20095;-71
2021/04/25 07:09:42;;;;;;;16.95;6.70;;;;;;;9.20;51.81;101719.50;5018168;28;20377;-68
2021/04/25 07:12:09;;;;;;;18.00;6.15;;;;;;;9.38;50.44;101727.13;5052740;28;20049;-68
2021/04/25 07:14:36;;;;;;;15.23;7.05;;;;;;;9.46;50.35;101723.78;5052966;28;20053;-68
2021/04/25 07:17:03;;;;;;;17.63;5.90;;;;;;;9.57;49.88;101722.66;5052419;28;20049;-66
2021/04/25 07:19:31;;;;;;;15.45;7.00;;;;;;;9.51;50.03;101724.59;5034906;28;20049;-68
2021/04/25 07:21:58;;;;;;;18.58;7.43;;;;;;;9.37;50.14;101741.97;5019161;28;20418;-65
2021/04/25 07:24:25;;;;;;;16.30;6.88;;;;;;;9.42;50.45;101736.44;5053200;28;20056;-65
2021/04/25 07:26:54;;;;;;;12.20;6.72;;;;;;;9.56;50.42;101737.50;5053928;28;20048;-71
2021/04/25 07:29:21;;;;;;;17.23;7.07;;;;;;;9.64;49.98;101736.94;5053474;28;20041;-70
2021/04/25 07:31:50;;;;;;;16.92;6.35;;;;;;;9.59;49.87;101745.22;5053539;28;20059;-73
2021/04/25 07:34:18;;;;;;;14.45;6.80;;;;;;;9.53;50.18;101740.81;5053502;28;20160;-67
2021/04/25 07:36:45;;;;;;;20.17;7.35;;;;;;;9.49;50.44;101737.81;5035790;28;20041;-68
2021/04/25 07:39:12;;;;;;;17.25;6.63;;;;;;;9.49;50.83;101732.31;5035273;28;20049;-68
2021/04/25 07:41:39;;;;;;;18.90;6.82;;;;;;;9.50;50.60;101727.63;5052213;28;20048;-67
2021/04/25 07:44:06;;;;;;;17.42;6.55;;;;;;;9.56;50.29;101721.81;5052769;28;20072;-65
2021/04/25 07:46:33;;;;;;;15.65;7.25;;;;;;;9.82;50.08;101730.75;5052122;28;20373;-66
2021/04/25 07:49:00;;;;;;;17.27;7.40;;;;;;;9.74;49.89;101718.44;5051370;28;20378;-68
2021/04/25 07:51:27;;;;;;;22.98;7.00;;;;;;;9.88;50.74;101713.97;5052397;28;20567;-68
2021/04/25 07:53:55;;;;;;;16.38;6.05;;;;;;;10.90;49.21;101717.53;5050386;28;20048;-69
2021/04/25 07:56:22;;;;;;;15.23;6.60;;;;;;;10.94;47.19;101704.81;5050577;28;20071;-63
2021/04/25 07:58:50;;;;;;;20.02;6.82;;;;;;;10.55;48.10;101702.16;5051343;28;20049;-70
2021/04/25 08:01:18;;;;;;;12.95;6.47;;;;;;;10.75;47.62;101699.25;5051918;28;20480;-63
2021/04/25 08:03:46;;;;;;;16.65;6.72;;;;;;;10.90;47.73;101704.59;5051329;28;20059;-65
2021/04/25 08:06:12;;;;;;;14.38;6.32;;;;;;;11.09;47.16;101713.75;5049079;28;20049;-67
2021/04/25 08:08:39;;;;;;;13.38;6.40;;;;;;;11.16;46.76;101711.47;5033551;28;20523;-66
2021/04/25 08:11:07;;;;;;;13.45;6.65;;;;;;;11.31;46.83;101707.72;5033425;28;20048;-66
2021/04/25 08:13:34;;;;;;;20.77;7.65;;;;;;;11.44;46.95;101703.44;5049892;28;20056;-64
2021/04/25 08:16:01;;;;;;;12.68;6.03;;;;;;;11.57;46.04;101708.22;5052087;28;20144;-67
2021/04/25 08:18:28;;;;;;;16.63;6.50;;;;;;;11.64;46.07;101712.28;5051665;28;20049;-65
2021/04/25 08:25:32;;;;;;;15.77;6.72;;;;;;;11.64;45.83;101701.25;5050752;28;20052;-66
2021/04/25 08:27:59;;;;;;;15.52;6.43;;;;;;;11.79;45.27;101708.50;5033807;28;20053;-69
2021/04/25 08:30:26;;;;;;;17.60;6.80;;;;;;;11.81;45.58;101707.09;5050792;28;20068;-66
2021/04/25 08:32:54;;;;;;;13.15;6.50;;;;;;;11.91;45.37;101709.69;5050894;28;20060;-71
2021/04/25 08:35:21;;;;;;;13.57;6.55;;;;;;;11.61;45.74;101704.56;5049774;28;20057;-73
2021/04/25 08:37:48;;;;;;;17.40;7.22;;;;;;;11.46;46.21;101690.13;5050433;28;20041;-69
2021/04/25 08:40:15;;;;;;;14.68;7.15;;;;;;;11.68;45.68;101690.44;5032792;28;20068;-69
2021/04/25 08:42:43;;;;;;;16.05;7.30;;;;;;;11.28;46.40;101708.28;5049089;28;20353;-65
2021/04/25 08:45:14;;;;;;;16.92;7.05;;;;;;;11.14;46.91;101708.19;5048842;28;20057;-68
2021/04/25 08:47:57;;;;;;;16.77;7.60;;;;;;;11.10;47.13;101703.56;5050118;28;20063;-69
2021/04/25 08:50:28;;;;;;;12.65;7.00;;;;;;;11.18;46.97;101717.50;5032394;28;20053;-69
2021/04/25 08:52:56;;;;;;;16.50;6.90;;;;;;;11.14;46.87;101727.47;5032109;28;20396;-70
2021/04/25 08:55:31;;;;;;;13.93;7.07;;;;;;;11.26;46.77;101719.63;5032833;28;20065;-68
2021/04/25 08:57:58;;;;;;;18.95;8.00;;;;;;;11.35;46.69;101731.66;5050227;28;20051;-70
2021/04/25 09:00:25;;;;;;;18.10;7.40;;;;;;;11.58;46.39;101731.91;5050781;28;20041;-68
2021/04/25 09:02:53;;;;;;;18.02;7.53;;;;;;;11.64;46.16;101733.50;5032728;28;20049;-67
2021/04/25 09:05:21;;;;;;;15.90;6.82;;;;;;;11.56;46.19;101732.22;5032456;28;20496;-66
2021/04/25 09:07:55;;;;;;;20.10;7.40;;;;;;;11.52;46.57;101716.56;5032870;28;20056;-70
2021/04/25 09:10:33;;;;;;;14.95;7.70;;;;;;;11.84;45.59;101714.75;5052101;28;20480;-68
2021/04/25 09:13:13;;;;;;;19.58;7.70;;;;;;;11.71;45.68;101739.53;5050750;28;20045;-75
2021/04/25 09:15:41;;;;;;;12.07;6.97;;;;;;;11.59;45.99;101712.34;5050666;28;20053;-67
2021/04/25 09:18:08;;;;;;;19.40;7.53;;;;;;;11.78;45.98;101718.72;5050773;28;20052;-65
2021/04/25 09:20:45;;;;;;;18.27;7.47;;;;;;;11.66;46.04;101712.00;5051258;28;20068;-67
2021/04/25 09:23:27;;;;;;;14.60;7.82;;;;;;;11.86;45.63;101729.09;5051567;28;20056;-69
2021/04/25 09:26:00;;;;;;;15.77;7.05;;;;;;;11.85;45.50;101712.84;5053530;28;20061;-66
2021/04/25 09:28:27;;;;;;;17.98;7.20;;;;;;;12.15;45.37;101715.94;5055900;28;20381;-69
2021/04/25 09:31:06;;;;;;;19.67;8.25;;;;;;;12.03;44.56;101723.06;5057909;28;20037;-69
2021/04/25 09:33:52;;;;;;;14.02;7.13;;;;;;;11.99;44.68;101724.78;5057149;28;20068;-64
2021/04/25 09:36:21;;;;;;;18.15;7.97;;;;;;;11.98;44.48;101710.13;5057387;28;20056;-64
2021/04/25 09:38:51;;;;;;;19.52;8.10;;;;;;;12.02;44.11;101694.63;5037217;28;20492;-64
2021/04/25 09:41:29;;;;;;;19.58;8.23;;;;;;;12.10;43.84;101718.78;5056194;28;20040;-68
2021/04/25 09:43:56;;;;;;;19.90;7.95;;;;;;;12.20;43.68;101717.84;5055815;28;20053;-64
2021/04/25 09:46:25;;;;;;;15.30;7.55;;;;;;;12.05;43.29;101727.16;5038202;28;20049;-66
2021/04/25 09:48:54;;;;;;;13.32;7.07;;;;;;;12.38;43.18;101723.31;5055090;28;20049;-66
2021/04/25 09:51:24;;;;;;;18.20;7.30;;;;;;;12.59;43.07;101709.97;5055330;28;20398;-65
2021/04/25 09:53:57;;;;;;;16.27;7.63;;;;;;;12.63;43.18;101715.72;5053552;28;20056;-66
2021/04/25 09:56:36;;;;;;;15.43;6.60;;;;;;;12.40;42.62;101718.31;5034087;28;20057;-65
2021/04/25 09:59:06;;;;;;;19.02;7.68;;;;;;;12.40;42.54;101717.50;5034136;28;20056;-67
2021/04/25 10:01:35;;;;;;;16.30;8.07;;;;;;;12.48;41.83;101714.06;5034647;28;20042;-67
2021/04/25 10:04:05;;;;;;;15.80;7.37;;;;;;;12.40;41.61;101720.25;5016572;28;20051;-67
2021/04/25 10:06:59;;;;;;;16.27;7.35;;;;;;;12.34;41.86;101719.50;5016841;28;20057;-65
2021/04/25 10:09:28;;;;;;;17.30;7.57;;;;;;;12.46;42.00;101706.03;5012062;28;20053;-66
2021/04/25 10:11:58;;;;;;;16.40;7.47;;;;;;;12.57;41.50;101714.19;5034882;28;20041;-64
2021/04/25 10:14:27;;;;;;;15.38;7.43;;;;;;;12.72;41.24;101716.69;5017494;28;20056;-67
2021/04/25 10:16:54;;;;;;;14.18;7.25;;;;;;;12.59;40.82;101715.50;5017114;28;20056;-64
2021/04/25 10:19:22;;;;;;;15.25;6.90;;;;;;;12.65;40.79;101721.78;5034550;28;20050;-64
2021/04/25 10:21:50;;;;;;;16.98;8.05;;;;;;;12.83;40.59;101707.88;5034111;28;20060;-65
2021/04/25 10:24:21;;;;;;;18.17;7.30;;;;;;;12.87;40.38;101710.88;5017182;28;20385;-66
2021/04/25 10:27:02;;;;;;;15.75;6.80;;;;;;;12.99;39.88;101694.63;5018170;28;20538;-68
2021/04/25 10:29:33;;;;;;;19.13;6.78;;;;;;;13.06;39.66;101690.34;5016474;28;20045;-63
2021/04/25 10:32:03;;;;;;;20.48;8.88;;;;;;;12.80;40.23;101702.16;5015924;28;20049;-65
2021/04/25 10:34:30;;;;;;;;;;;;;;;12.63;40.82;101688.91;5017077;28;20052;-66
2021/04/25 10:37:00;;;;;;;15.05;7.45;;;;;;;12.75;39.15;101692.00;5033135;28;19936;-62
2021/04/25 10:39:46;;;;;;;19.80;7.70;;;;;;;12.91;39.12;101703.59;5034053;28;20053;-64
2021/04/25 10:42:20;;;;;;;16.20;7.57;;;;;;;12.99;39.20;101687.13;5016566;28;20049;-64
2021/04/25 10:45:07;;;;;;;16.05;7.88;;;;;;;13.17;38.81;101697.31;5040706;28;20064;-64
2021/04/25 10:48:17;;;;;;;15.07;6.50;;;;;;;13.11;37.85;101701.31;5032901;28;20053;-63
2021/04/25 10:52:29;;;;;;;19.55;7.53;;;;;;;13.22;37.42;101704.69;5033087;28;20037;-66
2021/04/25 10:55:33;;;;;;;18.17;7.10;;;;;;;13.17;37.58;101685.44;5043429;28;20469;-67
2021/04/25 10:58:21;;;;;;;18.77;7.47;;;;;;;13.36;36.21;101691.69;5037045;28;20488;-63
2021/04/25 11:01:09;;;;;;;13.85;6.53;;;;;;;13.42;36.46;101687.69;5038678;28;20053;-67
2021/04/25 11:03:56;;;;;;;15.00;7.28;;;;;;;13.32;36.98;101693.41;5051940;28;20045;-69
2021/04/25 11:11:36;;;;;;;14.68;7.28;;;;;;;13.68;35.95;101682.41;5051935;28;20056;-64
2021/04/25 11:14:37;;;;;;;18.92;8.43;;;;;;;13.60;36.56;101674.84;5050619;28;20536;-63
2021/04/25 11:17:29;;;;;;;19.85;7.05;;;;;;;13.76;36.58;101671.41;5051259;28;20057;-62
2021/04/25 11:20:30;;;;;;;18.23;7.00;;;;;;;14.58;35.59;101689.41;5038834;28;20049;-79
2021/04/25 11:23:32;;;;;;;17.25;6.93;;;;;;;14.85;33.88;101659.84;5036238;28;20060;-69
2021/04/25 11:26:35;;;;;;;14.98;6.93;;;;;;;14.94;32.79;101655.97;5051909;28;20041;-69
2021/04/25 11:29:03;;;;;;;17.80;6.25;;;;;;;15.33;33.35;101655.13;5035134;28;20049;-70
2021/04/25 11:31:55;;;;;;;15.10;6.07;;;;;;;15.26;33.07;101655.59;5058811;28;20561;-71
2021/04/25 11:34:29;;;;;;;14.10;6.93;;;;;;;15.38;33.20;101644.69;5051256;28;20045;-71
2021/04/25 11:41:27;;;;;;;13.38;6.57;;;;;;;15.29;32.15;101662.50;5018358;28;20048;-71
2021/04/25 11:43:55;;;;;;;13.88;6.43;;;;;;;15.27;32.12;101654.44;5034178;28;20053;-70
2021/04/25 11:46:30;;;;;;;19.75;6.85;;;;;;;15.21;31.57;101660.47;5035252;28;20053;-70
2021/04/25 11:49:00;;;;;;;12.88;6.60;;;;;;;15.41;30.99;101655.19;5017948;28;20056;-71
2021/04/25 11:55:56;;;;;;;17.30;5.88;;;;;;;15.68;30.89;101648.53;5052982;28;20513;-74
2021/04/25 11:58:23;;;;;;;11.35;6.15;;;;;;;15.52;30.31;101656.53;5053167;28;20393;-76
2021/04/25 12:00:50;;;;;;;18.23;6.82;;;;;;;15.61;31.54;101640.69;5053789;28;20044;-78
2021/04/25 12:03:18;;;;;;;15.43;6.90;;;;;;;15.84;31.60;101649.72;5053667;28;20044;-74
2021/04/25 12:05:45;;;;;;;21.48;7.25;;;;;;;15.73;32.13;101645.59;5054451;28;20045;-76
2021/04/25 12:08:14;;;;;;;20.33;7.07;;;;;;;16.10;32.53;101646.91;5034508;28;20052;-73
2021/04/25 12:10:43;;;;;;;14.15;6.75;;;;;;;15.85;30.94;101647.75;5034906;28;20065;-73
2021/04/25 12:13:16;;;;;;;16.40;7.30;;;;;;;15.93;31.53;101642.19;5034830;28;20072;-71
2021/04/25 12:15:52;;;;;;;16.73;6.82;;;;;;;16.03;32.14;101643.81;5052440;28;20044;-74
2021/04/25 12:18:24;;;;;;;16.85;6.95;;;;;;;16.34;31.79;101647.22;5052715;28;20045;-71
2021/04/25 12:20:55;;;;;;;15.60;6.47;;;;;;;15.72;30.95;101661.47;5034342;28;20556;-75
2021/04/25 12:23:24;;;;;;;14.00;6.18;;;;;;;15.64;30.75;101653.94;5034763;28;20060;-72
2021/04/25 12:25:52;;;;;;;14.63;6.43;;;;;;;15.49;30.21;101679.38;5051962;28;20492;-71
2021/04/25 12:28:20;;;;;;;14.38;6.88;;;;;;;15.48;31.48;101661.06;5051024;28;20060;-71
2021/04/25 12:30:55;;;;;;;15.35;7.47;;;;;;;15.57;31.89;101667.47;5034371;28;20045;-72